メインページ
METAR-TAF:

METAR-TAF

空港 :

サドバリー, オンタリオ州, カナダ

緯度: 46-37N, 経度: 080-48W, 海抜: 348m

現時点の気象観測

当レポートは41分前の01:00(UTC)に作成
北西の風 4kt
気温 -9°C
湿度 79%
気圧 1014 hPa
視程: 24.1km
高度2500ftの千切れ雲あり
高度12000ftの曇り

METAR: CYSB 060100Z 32004KT 15SM BKN025 OVC120 M09/M12 A2995 RMK SC5AC3 SLP168

時間: 20:41 (01:41 UTC)

予報

当レポートは6時間3分前の19:38(UTC)に作成
予報は05日の 20時(UTC)から 06日の 08時(UTC)まで有効
西/北西の風 10kt
視程: 10km
高度2000ftの雲は散在している
05日の 20時(UTC)から 06日の 08時(UTC)まで一時的に
視程: 10km
高度2000ftの千切れ雲あり
弱いにわか雪
05日の 22時(UTC)から 05日の 24時(UTC)まで徐々に
西/北西の風 7kt

TAF: CYSB 051938Z 0520/0608 30010KT P6SM SCT020 TEMPO 0520/0608 P6SM -SHSN BKN020 BECMG 0522/0524 30007KT RMK NXT FCST BY 060200Z

4,000以上の空港の気象観測と天気予報(METAR報とTAF報)

利用可能な観測所は地図上に黄色い丸と赤い丸で示す。

丸の上にカーソルを重ねると観測所名を参照できる。

次にクリックすると気象観測と天気予報を参照できる。

マップの切り替え:黒色「×」印の緑ボタンをクリックして拡大、「-」印の緑ボタンをクリックして縮小、緑色の三角印をクリックして隣りの地図に切り替え


METAR-TAF: